Huvudsida
METAR-TAF:

METAR-TAF

Flygplatser :

Dala Airport

Borlänge, Sverige

latitud: 60-26N, longitud: 015-31E, höjd: 145 m

Aktuellt väderrapport

Denna rapport gjordes för 38 minuter sedan, klockan 21:20 UTC
Vind 2 kt varierande vindriktning
Temperatur 1°C
Fuktighet 100%
Tryck 1007 hPa
Sikt: 6000 m
okänt

METAR: ESSD 112120Z AUTO VRB02KT 6000 UP OVC003/// 01/01 Q1007

Tid: 22:58 (21:58 UTC)

Väderprognos

Denna rapport gjordes för 10 timmar och 28 minuter sedan, klockan 11:30 UTC
Prognos gäller från 11 kl. 12 UTC till 11 kl. 16 UTC
Vind 6 kt från ost
Sikt: 8000 m
Mulet på en höjd av 400 ft
lätt snö
Temporärt
från 11 kl. 12 UTC till 11 kl. 16 UTC
Sikt: 1400 m
på en höjd av 1000 ft
snö

TAF: ESSD 111130Z 1112/1116 09006KT 8000 -SN OVC004 TEMPO 1112/1116 1400 SN VV010

Aktuella väderrapporter och prognoser från 4000 flygplatser (METAR- och TAF-rapporter).

De tillgängliga stationerna syns som gula och röda prickar på kartan.

För musen över prickarna för att se namnen på stationerna.

Klicka sedan för att få väderrapporter och prognoser.

För att ändra kartan: Klicka på de gröna knapparna med ett svart kors på för att zooma in; den gröna knappen med ett streck på för att zooma ut; eller på de gröna pilarna för angränsande kartor.


METAR-TAF: